Time;durP1;ratioP1;P1;durP2;ratioP2;P2;SDS_P1;SDS_P2;PMS_P1;PMS_P2;Temp;Humidity;BMP_temperature;BMP_pressure;BME280_temperature;BME280_humidity;BME280_pressure;Samples;Min_cycle;Max_cycle;Signal;HPM_P1;HPM_P2
2022/03/23 00:01:38;;;;;;;26.00;14.83;;;7.10;39.90;;;;;;5124282;28;20198;-46
2022/03/23 00:04:09;;;;;;;21.57;13.30;;;7.00;40.00;;;;;;5162164;28;20205;-46
2022/03/23 00:06:40;;;;;;;24.40;14.50;;;7.00;40.00;;;;;;5124097;28;20197;-47
2022/03/23 00:09:12;;;;;;;38.43;15.63;;;7.00;40.10;;;;;;5139091;28;20572;-46
2022/03/23 00:11:43;;;;;;;27.53;15.87;;;7.00;40.10;;;;;;5123407;28;20297;-46
2022/03/23 00:14:14;;;;;;;29.57;16.30;;;7.00;40.00;;;;;;5165621;28;20579;-46
2022/03/23 00:16:44;;;;;;;29.20;15.10;;;7.00;40.00;;;;;;5157948;28;20729;-46
2022/03/23 00:19:17;;;;;;;29.00;15.33;;;7.00;40.10;;;;;;5124633;28;20984;-47
2022/03/23 00:21:47;;;;;;;30.03;14.50;;;6.90;40.10;;;;;;5177128;28;20816;-46
2022/03/23 00:24:18;;;;;;;35.77;15.23;;;6.80;40.30;;;;;;5145483;22;20495;-48
2022/03/23 00:26:48;;;;;;;29.73;15.13;;;6.80;40.40;;;;;;5154904;28;20180;-47
2022/03/23 00:29:19;;;;;;;27.13;13.70;;;6.80;40.50;;;;;;5160508;28;20189;-48
2022/03/23 00:31:49;;;;;;;30.50;15.87;;;6.70;40.50;;;;;;5155025;28;20217;-48
2022/03/23 00:34:20;;;;;;;25.80;14.70;;;6.70;40.60;;;;;;5159242;28;20240;-47
2022/03/23 00:36:50;;;;;;;35.43;16.90;;;6.70;40.80;;;;;;5146612;28;20726;-49
2022/03/23 00:39:22;;;;;;;35.47;15.10;;;6.60;40.80;;;;;;5161038;28;20177;-49
2022/03/23 00:41:53;;;;;;;30.43;16.17;;;6.60;40.80;;;;;;5160112;28;20204;-48
2022/03/23 00:44:23;;;;;;;25.00;14.87;;;6.60;40.90;;;;;;5160430;28;20455;-48
2022/03/23 00:46:54;;;;;;;34.47;16.70;;;6.60;41.00;;;;;;5148542;28;20277;-48
2022/03/23 00:49:24;;;;;;;31.00;15.03;;;6.50;41.00;;;;;;5155247;28;20220;-49
2022/03/23 00:51:56;;;;;;;26.13;15.33;;;6.50;41.30;;;;;;5159806;28;20248;-46
2022/03/23 00:54:26;;;;;;;34.83;16.60;;;6.50;41.40;;;;;;5157536;28;20212;-49
2022/03/23 00:56:57;;;;;;;36.73;18.00;;;6.40;41.60;;;;;;5161044;28;20624;-47
2022/03/23 00:59:27;;;;;;;34.83;15.90;;;6.40;41.90;;;;;;5153003;28;20667;-47
2022/03/23 01:02:01;;;;;;;26.17;15.20;;;6.40;42.00;;;;;;5157470;28;20679;-49
2022/03/23 01:04:31;;;;;;;29.73;15.53;;;6.40;41.90;;;;;;5153516;28;20215;-49
2022/03/23 01:07:03;;;;;;;23.83;15.63;;;6.40;42.20;;;;;;5162695;28;20447;-49
2022/03/23 01:09:33;;;;;;;33.33;17.23;;;6.30;42.40;;;;;;5145355;28;20197;-48
2022/03/23 01:12:04;;;;;;;33.93;16.40;;;6.30;42.50;;;;;;5153723;28;20443;-48
2022/03/23 01:14:34;;;;;;;36.73;18.37;;;6.20;42.80;;;;;;5161876;28;20215;-47
2022/03/23 01:17:06;;;;;;;34.33;18.80;;;6.20;43.00;;;;;;5154022;28;20299;-48
2022/03/23 01:19:36;;;;;;;34.13;18.40;;;6.20;42.90;;;;;;5144958;28;20201;-50
2022/03/23 01:22:07;;;;;;;35.37;17.93;;;6.20;42.90;;;;;;5150504;28;20490;-48
2022/03/23 01:24:38;;;;;;;30.50;17.20;;;6.20;43.10;;;;;;5154558;28;20579;-50
2022/03/23 01:27:08;;;;;;;37.73;17.57;;;6.10;43.30;;;;;;5151844;28;20434;-49
2022/03/23 01:29:39;;;;;;;31.77;16.50;;;6.10;43.60;;;;;;5159187;28;20185;-49
2022/03/23 01:32:10;;;;;;;35.00;17.50;;;6.10;43.70;;;;;;5146050;28;20281;-49
2022/03/23 01:34:40;;;;;;;25.90;16.30;;;6.00;43.70;;;;;;5154100;28;20209;-47
2022/03/23 01:37:11;;;;;;;33.93;16.70;;;6.00;43.70;;;;;;5156565;28;20229;-48
2022/03/23 01:39:41;;;;;;;37.87;17.83;;;6.00;43.70;;;;;;5149448;28;20179;-48
2022/03/23 01:42:12;;;;;;;37.53;17.53;;;5.90;43.90;;;;;;5153032;28;20183;-50
2022/03/23 01:44:42;;;;;;;37.50;17.33;;;5.90;44.30;;;;;;5160358;28;20305;-48
2022/03/23 01:47:16;;;;;;;31.33;16.93;;;5.90;44.70;;;;;;5157425;28;20378;-49
2022/03/23 01:49:50;;;;;;;34.53;17.37;;;5.90;44.70;;;;;;5161121;28;20214;-50
2022/03/23 01:52:23;;;;;;;32.67;16.73;;;5.90;44.60;;;;;;5151248;28;20454;-49
2022/03/23 01:54:53;;;;;;;36.77;17.47;;;5.90;44.70;;;;;;5156453;28;20457;-49
2022/03/23 01:57:24;;;;;;;29.60;16.60;;;5.80;44.80;;;;;;5155858;28;20528;-48
2022/03/23 01:59:55;;;;;;;28.07;15.83;;;5.70;45.00;;;;;;5145734;28;20522;-50
2022/03/23 02:02:26;;;;;;;28.67;16.10;;;5.70;45.30;;;;;;5149135;28;20203;-48
2022/03/23 02:04:56;;;;;;;28.93;16.43;;;5.70;45.50;;;;;;5143463;28;20512;-47
2022/03/23 02:07:27;;;;;;;36.43;17.53;;;5.60;45.70;;;;;;5152018;28;20192;-48
2022/03/23 02:09:59;;;;;;;32.33;17.87;;;5.60;45.80;;;;;;5156500;28;20192;-48
2022/03/23 02:12:30;;;;;;;31.90;17.20;;;5.60;45.80;;;;;;5150848;28;20682;-50
2022/03/23 02:15:12;;;;;;;36.20;17.67;;;5.70;45.90;;;;;;5158054;28;20533;-48
2022/03/23 02:17:44;;;;;;;23.63;14.37;;;5.70;45.90;;;;;;5146384;28;20494;-47
2022/03/23 02:20:14;;;;;;;26.43;14.20;;;5.70;45.90;;;;;;5154154;28;20809;-48
2022/03/23 02:22:46;;;;;;;33.60;16.73;;;5.60;45.90;;;;;;5146469;28;20446;-47
2022/03/23 02:25:22;;;;;;;47.43;17.90;;;5.50;46.40;;;;;;5159788;28;20298;-48
2022/03/23 02:27:54;;;;;;;39.40;17.10;;;5.50;46.80;;;;;;5158992;28;21014;-49
2022/03/23 02:30:24;;;;;;;36.10;16.90;;;5.50;46.80;;;;;;5151720;28;20474;-49
2022/03/23 02:32:58;;;;;;;29.27;15.80;;;5.50;46.70;;;;;;5155982;28;20443;-48
2022/03/23 02:35:29;;;;;;;44.50;18.20;;;5.50;47.00;;;;;;5144270;28;20211;-49
2022/03/23 02:37:59;;;;;;;33.30;17.80;;;5.40;47.40;;;;;;5148938;28;20501;-47
2022/03/23 02:40:30;;;;;;;31.37;17.50;;;5.30;47.50;;;;;;5149298;28;20217;-49
2022/03/23 02:43:01;;;;;;;28.47;16.33;;;5.40;47.40;;;;;;5157669;28;20217;-48
2022/03/23 02:45:31;;;;;;;32.27;16.37;;;5.40;47.50;;;;;;5142685;28;20200;-49
2022/03/23 02:48:05;;;;;;;37.00;15.90;;;5.40;47.30;;;;;;5160009;28;20179;-48
2022/03/23 02:50:36;;;;;;;42.03;15.73;;;5.40;47.20;;;;;;5157783;28;20185;-48
2022/03/23 03:02:21;;;;;;;24.90;14.80;;;5.30;48.20;;;;;;5157885;28;20441;-49
2022/03/23 03:04:52;;;;;;;26.50;14.97;;;5.30;48.00;;;;;;5152816;28;20553;-47
2022/03/23 03:07:23;;;;;;;25.33;14.90;;;5.20;48.20;;;;;;5156974;28;20519;-48
2022/03/23 03:09:53;;;;;;;30.00;15.40;;;5.20;48.30;;;;;;5151253;28;20560;-49
2022/03/23 03:12:24;;;;;;;27.83;16.27;;;5.10;48.30;;;;;;5164312;28;20530;-48
2022/03/23 03:14:54;;;;;;;34.63;16.33;;;5.10;48.20;;;;;;5159031;28;20271;-46
2022/03/23 03:17:26;;;;;;;27.53;13.40;;;5.10;48.70;;;;;;5155478;28;20550;-48
2022/03/23 03:19:57;;;;;;;23.57;13.30;;;5.00;48.00;;;;;;5157111;28;20224;-48
2022/03/23 03:22:27;;;;;;;32.90;14.63;;;5.00;48.10;;;;;;5162382;28;20525;-48
2022/03/23 03:24:58;;;;;;;27.23;15.10;;;5.00;48.00;;;;;;5163556;28;20218;-48
2022/03/23 03:27:31;;;;;;;34.33;14.40;;;4.90;48.00;;;;;;5156403;28;20581;-48
2022/03/23 03:30:04;;;;;;;31.77;15.40;;;4.90;48.10;;;;;;5157548;28;20197;-48
2022/03/23 03:32:36;;;;;;;27.90;13.83;;;4.80;48.20;;;;;;5158183;28;20437;-48
2022/03/23 03:35:07;;;;;;;30.37;14.37;;;4.80;48.50;;;;;;5155969;28;20809;-46
2022/03/23 03:37:39;;;;;;;24.13;13.60;;;4.70;48.70;;;;;;5147109;28;20990;-49
2022/03/23 03:40:10;;;;;;;27.97;15.53;;;4.70;48.80;;;;;;5156334;28;20522;-47
2022/03/23 03:42:41;;;;;;;26.83;14.63;;;4.60;48.80;;;;;;5149725;28;20507;-49
2022/03/23 03:45:11;;;;;;;25.00;14.73;;;4.70;49.20;;;;;;5154283;28;20462;-48
2022/03/23 03:47:42;;;;;;;22.40;13.33;;;4.60;49.30;;;;;;5149230;28;20186;-49
2022/03/23 03:50:13;;;;;;;25.03;13.10;;;4.60;49.50;;;;;;5149572;28;20436;-48
2022/03/23 03:52:43;;;;;;;23.33;14.53;;;4.50;49.60;;;;;;5159304;28;20241;-49
2022/03/23 03:55:14;;;;;;;26.93;15.13;;;4.50;50.20;;;;;;5159876;28;20583;-48
2022/03/23 03:57:45;;;;;;;28.73;16.10;;;4.50;49.70;;;;;;5164653;28;20209;-49
2022/03/23 04:00:15;;;;;;;31.23;17.40;;;4.50;49.80;;;;;;5159909;28;20185;-49
2022/03/23 04:02:46;;;;;;;30.80;16.57;;;4.50;49.90;;;;;;5154594;28;20189;-47
2022/03/23 04:05:16;;;;;;;32.40;16.73;;;4.50;50.00;;;;;;5160987;28;20585;-47
2022/03/23 04:07:47;;;;;;;36.00;16.87;;;4.50;50.00;;;;;;5163099;28;20185;-48
2022/03/23 04:10:17;;;;;;;35.03;17.17;;;4.50;49.90;;;;;;5152361;28;20193;-47
2022/03/23 04:12:48;;;;;;;27.23;15.60;;;4.50;49.90;;;;;;5156596;28;20198;-48
2022/03/23 04:15:20;;;;;;;30.33;15.87;;;4.50;49.90;;;;;;5163856;28;20342;-47
2022/03/23 04:17:51;;;;;;;31.50;17.53;;;4.50;50.10;;;;;;5158483;28;20210;-47
2022/03/23 04:20:23;;;;;;;34.87;17.60;;;4.40;50.10;;;;;;5154074;28;20432;-49
2022/03/23 04:22:53;;;;;;;45.77;17.40;;;4.40;50.30;;;;;;5150187;28;20439;-48
2022/03/23 04:25:24;;;;;;;44.00;19.50;;;4.40;50.60;;;;;;5144530;28;20473;-48
2022/03/23 04:27:58;;;;;;;31.37;17.43;;;4.30;50.70;;;;;;5146417;28;20664;-49
2022/03/23 04:30:31;;;;;;;30.97;17.23;;;4.40;51.50;;;;;;5156849;28;20185;-48
2022/03/23 04:33:02;;;;;;;29.43;16.73;;;4.30;50.90;;;;;;5159983;28;20522;-48
2022/03/23 04:35:33;;;;;;;30.33;16.50;;;4.30;51.20;;;;;;5153924;28;20464;-47
2022/03/23 04:38:03;;;;;;;33.67;16.43;;;4.20;51.30;;;;;;5152656;28;20473;-48
2022/03/23 04:40:34;;;;;;;33.73;14.27;;;4.20;51.50;;;;;;5158165;28;20182;-49
2022/03/23 04:43:04;;;;;;;28.03;13.53;;;4.10;51.50;;;;;;5162555;28;20696;-48
2022/03/23 04:45:35;;;;;;;26.23;14.50;;;4.10;51.30;;;;;;5144823;28;20204;-48
2022/03/23 04:48:06;;;;;;;49.80;16.60;;;4.10;51.30;;;;;;5159560;28;20188;-47
2022/03/23 04:50:37;;;;;;;17.20;12.27;;;4.10;51.40;;;;;;5147897;28;20195;-48
2022/03/23 04:53:07;;;;;;;34.20;15.47;;;4.10;51.70;;;;;;5147076;28;20181;-49
2022/03/23 04:55:39;;;;;;;31.77;15.33;;;4.00;52.00;;;;;;5153454;28;20565;-49
2022/03/23 04:58:09;;;;;;;22.00;13.43;;;4.00;52.00;;;;;;5157812;28;20269;-47
2022/03/23 05:00:40;;;;;;;34.77;14.80;;;3.90;52.20;;;;;;5158494;28;20512;-47
2022/03/23 05:03:13;;;;;;;25.50;14.63;;;3.90;52.40;;;;;;5159251;28;20255;-48
2022/03/23 05:05:44;;;;;;;26.77;14.67;;;3.90;52.80;;;;;;5158732;28;20206;-47
2022/03/23 05:08:14;;;;;;;29.10;15.17;;;3.90;53.00;;;;;;5150151;28;20456;-50
2022/03/23 05:10:45;;;;;;;25.57;14.33;;;3.90;53.00;;;;;;5146212;28;20267;-50
2022/03/23 05:13:15;;;;;;;26.87;14.80;;;3.90;53.00;;;;;;5158802;28;20209;-48
2022/03/23 05:15:46;;;;;;;39.90;15.20;;;3.90;53.00;;;;;;5165595;28;20263;-48
2022/03/23 05:18:16;;;;;;;29.53;15.90;;;3.90;53.10;;;;;;5163012;28;20278;-47
2022/03/23 05:20:48;;;;;;;38.40;15.10;;;4.00;53.40;;;;;;5146619;28;20181;-48
2022/03/23 05:23:18;;;;;;;31.17;14.40;;;4.00;53.40;;;;;;5160554;28;20173;-48
2022/03/23 05:25:48;;;;;;;25.00;14.50;;;4.00;53.40;;;;;;5162809;28;20551;-48
2022/03/23 05:28:19;;;;;;;32.10;15.83;;;4.00;53.50;;;;;;5161080;28;20306;-48
2022/03/23 05:30:49;;;;;;;27.00;14.67;;;4.00;53.50;;;;;;5148043;28;20181;-49
2022/03/23 05:33:20;;;;;;;22.17;14.37;;;4.10;53.90;;;;;;5157250;28;20196;-48
2022/03/23 05:35:50;;;;;;;27.97;16.20;;;4.10;54.00;;;;;;5144689;28;20271;-48
2022/03/23 05:38:21;;;;;;;27.90;16.10;;;4.20;54.10;;;;;;5150211;28;20210;-48
2022/03/23 05:40:51;;;;;;;44.20;17.33;;;4.40;54.00;;;;;;5158693;28;20205;-48
2022/03/23 05:43:22;;;;;;;33.17;16.10;;;4.60;53.20;;;;;;5145118;28;20193;-48
2022/03/23 05:45:52;;;;;;;34.10;17.10;;;4.80;52.70;;;;;;5153543;28;20235;-47
2022/03/23 05:48:23;;;;;;;35.50;16.80;;;5.10;52.00;;;;;;5148972;28;20231;-49
2022/03/23 05:50:53;;;;;;;46.03;17.53;;;5.30;51.20;;;;;;5152744;28;20189;-48
2022/03/23 05:53:24;;;;;;;41.17;17.30;;;5.40;50.50;;;;;;5157266;28;20281;-49
2022/03/23 05:55:54;;;;;;;27.80;17.20;;;5.70;50.30;;;;;;5160239;28;20192;-49
2022/03/23 05:58:25;;;;;;;40.60;18.47;;;6.20;49.20;;;;;;5156382;28;20213;-47
2022/03/23 06:00:55;;;;;;;41.27;17.20;;;6.90;48.20;;;;;;5145192;28;20184;-48
2022/03/23 06:03:26;;;;;;;37.73;18.57;;;7.90;45.70;;;;;;5146717;28;20189;-49
2022/03/23 06:05:57;;;;;;;36.33;18.43;;;8.80;43.20;;;;;;5170733;28;20178;-49
2022/03/23 06:08:27;;;;;;;30.97;17.60;;;9.30;42.00;;;;;;5175417;28;20181;-47
2022/03/23 06:10:58;;;;;;;31.63;17.77;;;10.20;39.80;;;;;;5223648;28;20625;-50
2022/03/23 06:13:29;;;;;;;39.87;19.37;;;11.60;37.20;;;;;;5162752;28;20193;-50
2022/03/23 06:15:59;;;;;;;34.63;18.50;;;12.70;34.60;;;;;;5160973;28;20185;-48
2022/03/23 06:18:30;;;;;;;31.63;16.77;;;13.40;33.30;;;;;;5229204;28;20215;-49
2022/03/23 06:21:00;;;;;;;36.27;18.30;;;14.10;31.70;;;;;;5157059;28;20205;-49
2022/03/23 06:23:31;;;;;;;27.23;15.23;;;14.60;30.80;;;;;;5159997;28;20595;-50
2022/03/23 06:26:05;;;;;;;29.30;17.10;;;15.10;30.00;;;;;;5159092;22;20603;-50
2022/03/23 06:28:35;;;;;;;36.93;18.73;;;15.40;29.40;;;;;;5153480;28;20701;-49
2022/03/23 06:31:06;;;;;;;36.20;17.90;;;15.70;29.00;;;;;;5143279;28;20437;-50
2022/03/23 06:33:37;;;;;;;32.83;17.70;;;15.80;28.50;;;;;;5166916;28;20212;-49
2022/03/23 06:36:07;;;;;;;49.03;20.30;;;15.90;28.90;;;;;;5157893;28;20190;-49
2022/03/23 06:38:38;;;;;;;35.17;17.70;;;16.50;28.50;;;;;;5157266;28;20200;-50
2022/03/23 06:41:08;;;;;;;34.03;19.37;;;17.00;27.40;;;;;;5139300;28;20182;-49
2022/03/23 06:43:40;;;;;;;32.80;17.17;;;17.20;27.20;;;;;;5184533;28;20174;-49
2022/03/23 06:46:10;;;;;;;36.57;18.10;;;17.50;26.90;;;;;;5187792;28;20218;-50
2022/03/23 06:48:40;;;;;;;31.23;16.80;;;18.30;26.30;;;;;;5146174;28;20429;-50
2022/03/23 06:51:11;;;;;;;44.50;17.60;;;18.90;26.10;;;;;;5130684;28;20525;-50
2022/03/23 06:53:42;;;;;;;43.27;19.90;;;19.70;25.30;;;;;;5135257;28;20182;-51
2022/03/23 06:56:13;;;;;;;35.70;16.97;;;19.90;24.70;;;;;;5140285;28;20470;-50
2022/03/23 06:58:43;;;;;;;36.07;17.27;;;20.40;24.40;;;;;;5145983;28;20292;-51
2022/03/23 07:01:14;;;;;;;28.90;17.80;;;20.90;23.80;;;;;;5152817;28;20186;-50
2022/03/23 07:03:44;;;;;;;34.17;17.77;;;20.70;23.20;;;;;;5144845;28;20204;-50
2022/03/23 07:06:16;;;;;;;31.43;16.30;;;20.50;23.40;;;;;;5140397;28;20301;-49
2022/03/23 07:11:36;;;;;;;30.50;16.20;;;20.50;23.30;;;;;;5144214;28;20438;-49
2022/03/23 07:14:06;;;;;;;35.60;19.30;;;20.40;23.00;;;;;;5145276;28;20807;-48
2022/03/23 07:16:37;;;;;;;30.07;16.80;;;20.50;23.20;;;;;;5141773;28;20292;-50
2022/03/23 07:19:07;;;;;;;30.23;17.90;;;20.90;23.00;;;;;;5149075;28;20208;-49
2022/03/23 07:21:38;;;;;;;30.43;18.13;;;21.60;22.70;;;;;;5145284;28;20218;-48
2022/03/23 07:24:08;;;;;;;35.07;19.00;;;21.50;22.40;;;;;;5139965;28;20259;-50
2022/03/23 07:26:39;;;;;;;34.23;18.87;;;21.50;22.50;;;;;;5148526;28;20211;-51
2022/03/23 07:29:10;;;;;;;27.60;18.87;;;21.70;22.40;;;;;;5162681;28;20208;-50
2022/03/23 07:31:42;;;;;;;32.53;17.60;;;22.20;22.30;;;;;;5150153;28;20186;-49
2022/03/23 07:34:18;;;;;;;36.07;18.57;;;22.60;22.00;;;;;;5139962;28;20467;-50
2022/03/23 07:36:49;;;;;;;33.97;17.83;;;23.00;21.80;;;;;;5146554;28;20473;-50
2022/03/23 07:39:21;;;;;;;38.20;18.13;;;23.30;21.50;;;;;;5142546;28;20425;-50
2022/03/23 07:41:53;;;;;;;39.73;18.07;;;24.00;21.20;;;;;;5150799;28;20201;-51
2022/03/23 07:44:24;;;;;;;38.63;17.23;;;24.40;20.90;;;;;;5151126;28;20537;-50
2022/03/23 07:46:54;;;;;;;38.17;18.43;;;24.90;20.60;;;;;;5141507;28;20560;-50
2022/03/23 07:49:25;;;;;;;43.47;18.30;;;24.70;20.30;;;;;;5139081;28;20193;-48
2022/03/23 07:51:57;;;;;;;26.53;16.80;;;24.40;20.10;;;;;;5146408;28;20287;-49
2022/03/23 07:54:28;;;;;;;35.30;18.17;;;23.90;20.60;;;;;;5147035;28;20202;-52
2022/03/23 07:56:59;;;;;;;36.87;17.20;;;24.00;20.40;;;;;;5141808;28;20496;-52
2022/03/23 07:59:30;;;;;;;29.83;17.90;;;23.70;20.20;;;;;;5141485;28;20441;-49
2022/03/23 08:02:00;;;;;;;26.10;16.03;;;22.80;20.50;;;;;;5143273;28;20232;-51
2022/03/23 08:04:32;;;;;;;39.00;18.27;;;22.30;21.00;;;;;;5148062;28;20259;-49
2022/03/23 08:07:03;;;;;;;33.77;17.60;;;21.60;21.50;;;;;;5151920;28;20187;-50
2022/03/23 08:09:33;;;;;;;34.53;18.27;;;21.10;22.10;;;;;;5131033;28;20449;-51
2022/03/23 08:12:04;;;;;;;46.83;17.20;;;20.10;23.00;;;;;;5135563;28;20185;-50
2022/03/23 08:14:35;;;;;;;25.10;16.20;;;19.20;23.30;;;;;;5142207;28;20268;-50
2022/03/23 08:17:05;;;;;;;29.67;17.40;;;18.20;24.10;;;;;;5139174;28;20556;-49
2022/03/23 08:19:36;;;;;;;33.23;19.03;;;17.40;24.90;;;;;;5138728;28;20193;-49
2022/03/23 08:22:07;;;;;;;29.00;17.27;;;16.70;25.50;;;;;;5139854;28;20185;-49
2022/03/23 08:24:37;;;;;;;27.50;16.90;;;15.70;26.30;;;;;;5133222;28;20220;-49
2022/03/23 08:27:08;;;;;;;29.60;16.37;;;14.90;27.10;;;;;;5150371;28;20194;-49
2022/03/23 08:29:38;;;;;;;32.10;17.80;;;15.00;27.60;;;;;;5145698;28;20185;-50
2022/03/23 08:32:09;;;;;;;28.93;17.37;;;15.00;27.70;;;;;;5175101;28;20205;-49
2022/03/23 08:34:39;;;;;;;39.87;18.60;;;14.60;27.80;;;;;;5169339;28;20229;-50
2022/03/23 08:37:10;;;;;;;28.80;17.60;;;14.30;28.20;;;;;;5145593;28;20209;-50
2022/03/23 08:39:40;;;;;;;25.27;15.73;;;14.30;29.30;;;;;;5143641;28;20205;-49
2022/03/23 08:42:11;;;;;;;26.03;16.40;;;14.40;29.30;;;;;;5159024;28;20250;-49
2022/03/23 08:44:42;;;;;;;36.10;18.30;;;14.30;28.70;;;;;;5148784;28;20312;-49
2022/03/23 08:47:12;;;;;;;31.60;16.93;;;13.90;28.40;;;;;;5148511;28;20177;-49
2022/03/23 08:49:44;;;;;;;32.27;18.47;;;13.70;29.40;;;;;;5138018;28;20186;-49
2022/03/23 08:52:16;;;;;;;29.00;16.60;;;13.60;29.00;;;;;;5142898;28;20229;-49
2022/03/23 08:54:46;;;;;;;34.13;19.03;;;13.40;29.20;;;;;;5148116;28;20465;-51
2022/03/23 08:57:17;;;;;;;28.30;16.93;;;13.30;29.50;;;;;;5136395;28;20293;-52
2022/03/23 08:59:47;;;;;;;26.60;14.07;;;13.30;29.40;;;;;;5140150;28;20193;-50
2022/03/23 09:02:18;;;;;;;36.53;18.80;;;13.30;29.40;;;;;;5156048;28;20186;-51
2022/03/23 09:04:48;;;;;;;33.03;16.37;;;13.40;29.20;;;;;;5145002;28;20224;-49
2022/03/23 09:07:19;;;;;;;26.67;14.80;;;13.50;29.50;;;;;;5140815;28;20189;-51
2022/03/23 09:09:50;;;;;;;24.47;16.70;;;13.60;29.30;;;;;;5139027;28;20712;-51
2022/03/23 09:12:20;;;;;;;33.27;17.30;;;13.60;29.20;;;;;;5140221;28;20196;-50
2022/03/23 09:14:51;;;;;;;41.13;18.27;;;13.70;29.10;;;;;;5138853;28;20237;-50
2022/03/23 09:17:22;;;;;;;28.47;18.00;;;13.80;28.90;;;;;;5137634;28;20291;-49
2022/03/23 09:19:54;;;;;;;29.27;17.10;;;13.80;28.80;;;;;;5127030;28;20538;-49
2022/03/23 09:22:24;;;;;;;29.17;16.80;;;13.90;28.50;;;;;;5140135;28;20437;-50
2022/03/23 09:24:55;;;;;;;69.80;19.30;;;13.80;28.70;;;;;;5140391;28;20478;-49
2022/03/23 09:27:25;;;;;;;26.57;16.10;;;13.70;28.80;;;;;;5134509;28;20285;-50
2022/03/23 09:29:56;;;;;;;30.63;17.07;;;13.80;29.00;;;;;;5142720;28;20193;-51
2022/03/23 09:32:27;;;;;;;33.90;16.90;;;13.90;28.60;;;;;;5140063;28;20186;-51
2022/03/23 09:34:57;;;;;;;32.83;16.27;;;13.90;28.70;;;;;;5144927;28;20220;-52
2022/03/23 09:40:28;;;;;;;29.93;16.77;;;14.20;28.50;;;;;;5152697;28;20200;-52
2022/03/23 09:43:04;;;;;;;30.40;17.30;;;14.40;28.30;;;;;;5163573;28;20433;-50
2022/03/23 09:48:09;;;;;;;29.10;17.10;;;14.40;28.00;;;;;;5143518;28;20432;-51
2022/03/23 09:50:45;;;;;;;24.10;15.10;;;14.50;28.10;;;;;;5153307;28;20507;-50
2022/03/23 09:53:16;;;;;;;32.00;17.57;;;14.60;28.20;;;;;;5144222;28;20843;-50
2022/03/23 09:55:49;;;;;;;32.00;17.70;;;14.70;28.10;;;;;;5145482;28;20473;-51
2022/03/23 09:58:20;;;;;;;34.90;17.93;;;14.80;28.20;;;;;;5139969;28;20818;-49
2022/03/23 10:00:50;;;;;;;27.37;17.27;;;14.90;28.00;;;;;;5145198;28;20494;-53
2022/03/23 10:03:59;;;;;;;26.07;17.50;;;15.00;27.90;;;;;;5142872;28;21039;-50
2022/03/23 10:06:44;;;;;;;25.00;16.40;;;15.00;27.60;;;;;;5138119;28;20638;-49
2022/03/23 10:09:50;;;;;;;25.30;16.33;;;15.00;27.50;;;;;;5167776;28;20440;-51
2022/03/23 10:13:11;;;;;;;35.67;18.07;;;15.00;27.70;;;;;;5160506;28;20473;-52
2022/03/23 10:16:20;;;;;;;29.87;15.80;;;15.10;27.90;;;;;;5148673;28;20472;-52
2022/03/23 10:18:51;;;;;;;24.47;16.40;;;15.10;27.50;;;;;;5139105;28;20441;-51
2022/03/23 10:21:26;;;;;;;29.43;16.10;;;15.30;27.40;;;;;;5136932;28;20479;-51
2022/03/23 10:24:00;;;;;;;23.70;14.90;;;15.30;28.00;;;;;;5179431;28;20178;-52
2022/03/23 10:26:36;;;;;;;25.13;15.00;;;15.40;27.20;;;;;;5147078;28;20445;-51
2022/03/23 10:29:22;;;;;;;35.37;16.80;;;15.60;27.20;;;;;;5158854;28;20428;-50
2022/03/23 10:32:04;;;;;;;27.30;16.23;;;15.80;27.30;;;;;;5190353;28;20417;-51
2022/03/23 10:34:38;;;;;;;31.13;16.40;;;15.90;27.10;;;;;;5142033;28;20526;-51
2022/03/23 10:37:10;;;;;;;25.50;14.20;;;16.00;27.10;;;;;;5144406;28;20483;-50
2022/03/23 10:39:41;;;;;;;23.53;14.30;;;16.10;26.90;;;;;;5138184;28;20517;-49
2022/03/23 10:42:20;;;;;;;30.47;16.37;;;16.20;27.00;;;;;;5149572;28;20535;-50
2022/03/23 10:45:20;;;;;;;40.43;15.50;;;16.30;26.60;;;;;;5152196;28;20296;-51
2022/03/23 10:47:51;;;;;;;28.50;15.53;;;16.20;26.60;;;;;;5142639;28;20456;-51
2022/03/23 10:50:23;;;;;;;24.17;15.07;;;16.00;26.80;;;;;;5143942;28;20458;-51
2022/03/23 10:53:00;;;;;;;33.33;16.37;;;16.10;26.80;;;;;;5112233;28;20248;-50
2022/03/23 10:55:36;;;;;;;24.07;14.60;;;16.20;26.80;;;;;;5136524;28;20506;-50
2022/03/23 10:58:22;;;;;;;31.37;15.03;;;16.30;26.80;;;;;;5133675;28;20480;-52
2022/03/23 11:01:03;;;;;;;23.07;14.00;;;16.40;26.90;;;;;;5166891;28;20522;-49
2022/03/23 11:03:38;;;;;;;23.30;15.10;;;16.60;26.80;;;;;;5132737;28;20448;-51
2022/03/23 11:06:14;;;;;;;25.27;15.63;;;16.70;26.90;;;;;;5169941;28;20505;-50
2022/03/23 11:08:44;;;;;;;22.33;15.27;;;16.90;26.60;;;;;;5130164;28;20430;-52
2022/03/23 11:16:54;;;;;;;24.27;16.27;;;17.00;25.90;;;;;;5145383;28;21027;-50
2022/03/23 11:19:26;;;;;;;26.83;15.67;;;16.90;25.90;;;;;;5157626;28;20464;-50
2022/03/23 11:22:06;;;;;;;32.43;17.17;;;16.90;25.80;;;;;;5136947;28;20449;-52
2022/03/23 11:24:42;;;;;;;31.90;16.43;;;16.90;26.50;;;;;;5134105;28;20460;-51
2022/03/23 11:27:18;;;;;;;22.87;15.50;;;17.00;26.80;;;;;;5139170;28;20449;-50
2022/03/23 11:29:49;;;;;;;29.90;15.40;;;16.90;26.80;;;;;;5135771;28;20453;-51
2022/03/23 11:32:29;;;;;;;29.33;16.50;;;16.90;26.70;;;;;;5163941;28;20452;-50
2022/03/23 11:35:04;;;;;;;31.07;17.07;;;17.00;26.60;;;;;;5137422;28;20205;-51
2022/03/23 11:37:37;;;;;;;25.27;14.97;;;17.20;26.70;;;;;;5139945;28;21031;-51
2022/03/23 11:40:08;;;;;;;24.40;16.57;;;17.20;26.90;;;;;;5140250;28;20465;-49
2022/03/23 11:42:39;;;;;;;24.63;16.20;;;17.20;26.60;;;;;;5140577;28;20425;-49
2022/03/23 11:45:12;;;;;;;25.83;13.27;;;17.30;26.70;;;;;;5141735;28;20495;-50
2022/03/23 11:47:54;;;;;;;26.80;15.03;;;17.40;26.90;;;;;;5159201;28;21029;-50
2022/03/23 11:50:33;;;;;;;23.27;15.77;;;17.50;26.90;;;;;;5145385;28;20494;-52
2022/03/23 11:53:19;;;;;;;30.50;17.47;;;17.60;26.90;;;;;;5143906;28;20486;-51
2022/03/23 11:55:51;;;;;;;38.57;15.70;;;17.50;26.80;;;;;;5147164;28;20569;-51
2022/03/23 11:58:33;;;;;;;23.03;15.77;;;17.50;26.90;;;;;;5151866;28;20913;-51
2022/03/23 12:01:12;;;;;;;25.20;15.30;;;17.60;27.00;;;;;;5144071;28;20443;-53
2022/03/23 12:03:51;;;;;;;34.70;15.10;;;17.70;26.70;;;;;;5143540;28;20452;-51
2022/03/23 12:06:39;;;;;;;24.13;13.37;;;17.80;26.00;;;;;;5138292;28;20452;-50
2022/03/23 12:09:37;;;;;;;20.47;14.33;;;17.80;25.90;;;;;;5158441;28;20457;-51
2022/03/23 12:12:13;;;;;;;19.23;13.83;;;17.90;26.10;;;;;;5147188;28;20528;-53
2022/03/23 12:14:44;;;;;;;20.40;13.23;;;18.10;25.90;;;;;;5139360;28;20824;-52
2022/03/23 12:17:16;;;;;;;20.90;14.43;;;18.20;25.20;;;;;;5149926;28;20500;-51
2022/03/23 12:19:56;;;;;;;24.13;14.70;;;18.30;24.90;;;;;;5152329;28;20463;-52
2022/03/23 12:22:32;;;;;;;22.10;15.07;;;18.10;25.00;;;;;;5165260;28;20433;-51
2022/03/23 12:25:17;;;;;;;35.63;15.40;;;18.10;25.30;;;;;;5136011;28;20486;-50
2022/03/23 12:28:25;;;;;;;28.00;16.17;;;18.10;25.40;;;;;;5156341;28;20424;-52
2022/03/23 12:30:55;;;;;;;22.97;15.10;;;18.10;25.80;;;;;;5138776;28;20448;-51
2022/03/23 12:33:29;;;;;;;25.97;15.37;;;18.20;25.60;;;;;;5145624;28;20437;-49
2022/03/23 12:36:01;;;;;;;22.73;14.63;;;18.20;25.40;;;;;;5133093;28;20236;-53
2022/03/23 12:38:33;;;;;;;25.30;14.87;;;18.10;25.20;;;;;;5134757;28;20543;-49
2022/03/23 12:41:09;;;;;;;24.83;15.90;;;18.10;25.40;;;;;;5137416;28;20443;-53
2022/03/23 12:43:49;;;;;;;37.83;17.70;;;18.00;25.50;;;;;;5144899;28;20528;-51
2022/03/23 12:46:26;;;;;;;24.50;16.07;;;17.90;25.60;;;;;;5136772;28;20444;-52
2022/03/23 12:57:49;;;;;;;26.80;18.03;;;17.70;26.00;;;;;;5176457;28;20482;-48
2022/03/23 13:00:26;;;;;;;28.50;18.20;;;17.80;26.10;;;;;;5145171;28;20449;-48
2022/03/23 13:03:06;;;;;;;26.13;17.60;;;17.80;25.70;;;;;;5146959;28;20462;-47
2022/03/23 13:05:58;;;;;;;33.20;18.43;;;17.80;25.90;;;;;;5139453;28;20449;-48
2022/03/23 13:08:38;;;;;;;28.23;15.80;;;17.70;26.00;;;;;;5141147;28;20438;-48
2022/03/23 13:11:10;;;;;;;31.87;18.13;;;17.80;26.10;;;;;;5148685;28;20432;-48
2022/03/23 13:13:41;;;;;;;37.80;18.57;;;17.90;25.70;;;;;;5144619;28;20436;-51
2022/03/23 13:16:14;;;;;;;31.13;17.97;;;18.00;25.40;;;;;;5158937;28;20812;-48
2022/03/23 13:18:45;;;;;;;27.33;16.17;;;18.10;25.00;;;;;;5154891;28;20529;-49
2022/03/23 13:21:18;;;;;;;29.80;16.47;;;18.00;24.40;;;;;;5140135;28;20440;-47
2022/03/23 13:23:51;;;;;;;31.90;16.17;;;18.00;24.80;;;;;;5147680;28;20428;-49
2022/03/23 13:26:24;;;;;;;30.10;17.43;;;18.00;24.90;;;;;;5146971;28;20491;-49
2022/03/23 13:29:01;;;;;;;30.27;17.73;;;18.10;25.00;;;;;;5150492;28;20535;-46
2022/03/23 13:31:35;;;;;;;26.77;18.00;;;18.10;24.90;;;;;;5140492;28;20474;-50